createdAt,value
2023-01-13T00:01:11.712Z,9.30
2023-01-13T00:04:18.314Z,9.20
2023-01-13T00:06:47.321Z,9.20
2023-01-13T00:09:15.571Z,9.20
2023-01-13T00:11:43.786Z,9.10
2023-01-13T00:14:12.451Z,9.10
2023-01-13T00:16:40.729Z,9.00
2023-01-13T00:19:09.091Z,9.00
2023-01-13T00:21:39.340Z,9.00
2023-01-13T00:24:08.199Z,8.90
2023-01-13T00:26:36.472Z,8.80
2023-01-13T00:29:05.110Z,8.80
2023-01-13T00:31:33.391Z,8.70
2023-01-13T00:34:02.750Z,8.70
2023-01-13T00:36:32.380Z,8.60
2023-01-13T00:39:01.990Z,8.60
2023-01-13T00:41:50.510Z,8.60
2023-01-13T00:44:18.305Z,8.60
2023-01-13T00:46:46.607Z,8.60
2023-01-13T00:49:15.381Z,8.60
2023-01-13T00:51:43.858Z,8.60
2023-01-13T00:54:13.838Z,8.50
2023-01-13T01:01:22.427Z,8.50
2023-01-13T01:03:51.006Z,8.40
2023-01-13T01:06:21.366Z,8.40
2023-01-13T01:08:49.805Z,8.40
2023-01-13T01:15:57.513Z,8.50
2023-01-13T01:18:25.771Z,8.50
2023-01-13T01:20:53.996Z,8.50
2023-01-13T01:23:22.791Z,8.50
2023-01-13T01:25:51.065Z,8.50
2023-01-13T01:28:20.672Z,8.50
2023-01-13T01:30:49.489Z,8.50
2023-01-13T01:33:19.043Z,8.50
2023-01-13T01:35:47.273Z,8.50
2023-01-13T01:38:15.773Z,8.50
2023-01-13T01:40:43.986Z,8.40
2023-01-13T01:43:39.891Z,8.40
2023-01-13T01:46:09.582Z,8.40
2023-01-13T01:48:43.479Z,8.40
2023-01-13T01:51:14.522Z,8.40
2023-01-13T01:53:43.191Z,8.30
2023-01-13T01:56:12.406Z,8.40
2023-01-13T01:58:46.209Z,8.50
2023-01-13T02:01:44.993Z,8.50
2023-01-13T02:04:18.637Z,8.50
2023-01-13T02:11:51.431Z,8.50
2023-01-13T02:14:20.854Z,8.50
2023-01-13T02:17:01.300Z,8.50
2023-01-13T02:20:09.584Z,8.40
2023-01-13T02:22:52.394Z,8.50
2023-01-13T02:25:55.739Z,8.60
2023-01-13T02:29:03.686Z,8.60
2023-01-13T02:31:44.630Z,8.60
2023-01-13T02:34:18.339Z,8.60
2023-01-13T02:36:53.208Z,8.70
2023-01-13T02:39:26.879Z,8.60
2023-01-13T02:42:17.759Z,8.60
2023-01-13T02:44:59.442Z,8.60
2023-01-13T02:47:31.095Z,8.50
2023-01-13T02:50:03.716Z,8.40
2023-01-13T02:52:37.860Z,8.30
2023-01-13T02:55:10.247Z,8.20
2023-01-13T02:57:41.011Z,8.20
2023-01-13T03:00:12.504Z,8.10
2023-01-13T03:02:42.147Z,8.10
2023-01-13T03:05:15.700Z,8.10
2023-01-13T03:08:07.548Z,8.00
2023-01-13T03:10:47.789Z,8.10
2023-01-13T03:13:31.997Z,8.10
2023-01-13T03:16:09.988Z,8.10
2023-01-13T03:18:47.023Z,8.00
2023-01-13T03:21:21.477Z,8.10
2023-01-13T03:23:53.409Z,8.10
2023-01-13T03:26:28.961Z,8.10
2023-01-13T03:29:03.295Z,8.10
2023-01-13T03:31:34.888Z,8.10
2023-01-13T03:34:08.790Z,8.10
2023-01-13T03:36:40.385Z,8.10
2023-01-13T03:39:12.528Z,8.00
2023-01-13T03:41:47.395Z,8.00
2023-01-13T03:44:23.276Z,8.00
2023-01-13T03:47:00.991Z,8.00
2023-01-13T03:49:35.747Z,8.00
2023-01-13T03:52:08.724Z,7.90
2023-01-13T03:54:41.543Z,7.90
2023-01-13T03:57:13.461Z,7.90
2023-01-13T03:59:46.144Z,7.80
2023-01-13T04:02:19.717Z,7.80
2023-01-13T04:04:53.552Z,7.80
2023-01-13T04:07:33.037Z,7.80
2023-01-13T04:10:04.071Z,7.80
2023-01-13T04:12:47.922Z,7.80
2023-01-13T04:15:17.013Z,7.90
2023-01-13T04:17:45.723Z,7.90
2023-01-13T04:20:15.957Z,7.80
2023-01-13T04:22:44.143Z,7.90
2023-01-13T04:25:12.664Z,7.90
2023-01-13T04:27:41.154Z,8.00
2023-01-13T04:30:10.938Z,8.00
2023-01-13T04:32:39.403Z,8.00
2023-01-13T04:35:08.813Z,8.00
2023-01-13T04:37:38.545Z,8.00
2023-01-13T04:40:08.325Z,8.00
2023-01-13T04:42:36.651Z,8.00
2023-01-13T04:45:05.182Z,8.00
2023-01-13T04:47:33.702Z,7.90
2023-01-13T04:50:01.946Z,7.90
2023-01-13T04:52:30.139Z,7.90
2023-01-13T04:54:59.825Z,7.80
2023-01-13T04:57:28.813Z,7.80
2023-01-13T04:59:57.092Z,7.80
2023-01-13T05:02:25.306Z,7.80
2023-01-13T05:05:32.354Z,7.90
2023-01-13T05:08:00.861Z,7.80
2023-01-13T05:10:30.553Z,7.70
2023-01-13T05:13:16.768Z,7.70
2023-01-13T05:16:17.234Z,7.70
2023-01-13T05:18:45.960Z,7.70
2023-01-13T05:21:28.024Z,7.70
2023-01-13T05:24:13.673Z,7.70
2023-01-13T05:26:43.208Z,7.60
2023-01-13T05:29:11.619Z,7.50
2023-01-13T05:31:39.943Z,7.60
2023-01-13T05:34:08.145Z,7.50
2023-01-13T05:36:36.503Z,7.50
2023-01-13T05:39:05.611Z,7.40
2023-01-13T05:41:51.225Z,7.40
2023-01-13T05:44:21.148Z,7.50
2023-01-13T05:46:49.496Z,7.50
2023-01-13T05:49:17.687Z,7.60
2023-01-13T05:51:46.371Z,7.60
2023-01-13T05:54:14.764Z,7.60
2023-01-13T05:56:42.959Z,7.50
2023-01-13T05:59:11.735Z,7.50
2023-01-13T06:01:41.322Z,7.50
2023-01-13T06:04:09.596Z,7.40
2023-01-13T06:06:38.449Z,7.40
2023-01-13T06:09:06.742Z,7.40
2023-01-13T06:11:35.057Z,7.40
2023-01-13T06:14:03.767Z,7.40
2023-01-13T06:16:32.001Z,7.40
2023-01-13T06:19:01.792Z,7.40
2023-01-13T06:21:32.368Z,7.50
2023-01-13T06:24:01.429Z,7.40
2023-01-13T06:26:33.004Z,7.40
2023-01-13T06:29:01.294Z,7.30
2023-01-13T06:31:29.795Z,7.30
2023-01-13T06:34:04.122Z,7.30
2023-01-13T06:36:35.935Z,7.40
2023-01-13T06:39:06.242Z,7.40
2023-01-13T06:41:52.918Z,7.30
2023-01-13T06:44:24.031Z,7.30
2023-01-13T06:46:52.901Z,7.20
2023-01-13T06:49:22.717Z,7.20
2023-01-13T06:51:51.094Z,7.20
2023-01-13T06:54:19.374Z,7.20
2023-01-13T06:56:47.809Z,7.20
2023-01-13T06:59:16.059Z,7.30
2023-01-13T07:01:45.368Z,7.40
2023-01-13T07:04:13.988Z,7.30
2023-01-13T07:06:43.657Z,7.40
2023-01-13T07:09:12.041Z,7.40
2023-01-13T07:11:40.511Z,7.40
2023-01-13T07:14:28.568Z,7.40
2023-01-13T07:16:56.975Z,7.50
2023-01-13T07:19:25.218Z,7.50
2023-01-13T07:21:57.082Z,7.40
2023-01-13T07:24:25.451Z,7.40
2023-01-13T07:26:54.046Z,7.50
2023-01-13T07:29:22.266Z,7.40
2023-01-13T07:31:50.651Z,7.40
2023-01-13T07:34:18.990Z,7.30
2023-01-13T07:36:47.596Z,7.40
2023-01-13T07:39:17.601Z,7.40
2023-01-13T07:42:03.527Z,7.50
2023-01-13T07:44:32.226Z,7.50
2023-01-13T07:47:00.529Z,7.50
2023-01-13T07:49:28.739Z,7.50
2023-01-13T07:51:57.456Z,7.50
2023-01-13T07:54:39.687Z,7.50
2023-01-13T07:57:09.301Z,7.60
2023-01-13T07:59:37.556Z,7.70
2023-01-13T08:02:06.054Z,7.70
2023-01-13T08:04:35.416Z,7.70
2023-01-13T08:07:04.302Z,7.70
2023-01-13T08:09:33.920Z,7.80
2023-01-13T08:12:16.308Z,7.80
2023-01-13T08:14:44.708Z,7.80
2023-01-13T08:17:15.824Z,7.90
2023-01-13T08:19:44.229Z,7.90
2023-01-13T08:22:12.425Z,7.90
2023-01-13T08:24:42.191Z,7.90
2023-01-13T08:27:10.439Z,8.10
2023-01-13T08:29:38.677Z,8.10
2023-01-13T08:32:07.947Z,8.10
2023-01-13T08:34:37.633Z,8.10
2023-01-13T08:37:05.840Z,8.00
2023-01-13T08:39:36.006Z,8.10
2023-01-13T08:42:05.878Z,8.00
2023-01-13T08:44:34.456Z,8.00
2023-01-13T08:47:02.873Z,8.00
2023-01-13T08:49:31.114Z,8.10
2023-01-13T08:51:59.395Z,8.30
2023-01-13T08:54:27.824Z,8.40
2023-01-13T08:56:56.543Z,8.40
2023-01-13T08:59:26.166Z,8.40
2023-01-13T09:01:54.770Z,8.50
2023-01-13T09:04:25.156Z,8.50
2023-01-13T09:06:53.747Z,8.40
2023-01-13T09:09:22.990Z,8.40
2023-01-13T09:12:09.835Z,8.40
2023-01-13T09:14:40.644Z,8.40
2023-01-13T09:17:09.293Z,8.60
2023-01-13T09:19:37.477Z,8.70
2023-01-13T09:22:05.770Z,8.80
2023-01-13T09:24:34.251Z,8.90
2023-01-13T09:27:02.786Z,9.00
2023-01-13T09:29:31.311Z,9.10
2023-01-13T09:32:01.160Z,9.10
2023-01-13T09:34:46.873Z,9.10
2023-01-13T09:37:15.412Z,9.10
2023-01-13T09:39:43.666Z,9.10
2023-01-13T09:42:37.603Z,9.10
2023-01-13T09:45:10.056Z,9.10
2023-01-13T09:47:47.278Z,9.10
2023-01-13T09:50:37.574Z,9.10
2023-01-13T09:53:11.358Z,9.10
2023-01-13T09:55:39.587Z,9.20
2023-01-13T09:58:14.765Z,9.20
2023-01-13T10:00:47.888Z,9.20
2023-01-13T10:03:24.926Z,9.20
2023-01-13T10:06:01.188Z,9.30
2023-01-13T10:08:31.496Z,9.40
2023-01-13T10:11:22.177Z,9.50
2023-01-13T10:13:52.504Z,9.60
2023-01-13T10:16:29.610Z,9.60
2023-01-13T10:19:06.454Z,9.70
2023-01-13T10:22:09.362Z,9.60
2023-01-13T10:24:54.878Z,9.60
2023-01-13T10:27:30.533Z,9.60
2023-01-13T10:29:59.052Z,9.60
2023-01-13T10:32:27.350Z,9.60
2023-01-13T10:34:58.148Z,9.50
2023-01-13T10:37:28.962Z,9.50
2023-01-13T10:39:59.197Z,9.40
2023-01-13T10:42:27.551Z,9.30
2023-01-13T10:49:37.125Z,9.50
2023-01-13T10:52:26.416Z,9.50
2023-01-13T10:54:56.117Z,9.50
2023-01-13T10:57:26.996Z,9.50
2023-01-13T10:59:56.407Z,9.50
2023-01-13T11:02:30.685Z,9.40
2023-01-13T11:05:37.769Z,9.40
2023-01-13T11:08:18.655Z,9.50
2023-01-13T11:10:49.153Z,9.70
2023-01-13T11:13:20.684Z,9.70
2023-01-13T11:15:55.473Z,9.80
2023-01-13T11:18:32.803Z,9.80
2023-01-13T11:21:05.196Z,9.70
2023-01-13T11:23:40.992Z,9.60
2023-01-13T11:26:15.724Z,9.50
2023-01-13T11:28:51.116Z,9.40
2023-01-13T11:31:25.575Z,9.50
2023-01-13T11:34:00.263Z,9.50
2023-01-13T11:36:35.542Z,9.50
2023-01-13T11:39:20.834Z,9.50
2023-01-13T11:42:13.421Z,9.50
2023-01-13T11:44:47.853Z,9.60
2023-01-13T11:47:22.217Z,9.60
2023-01-13T11:49:50.744Z,9.70
2023-01-13T11:52:24.534Z,9.80
2023-01-13T11:55:09.433Z,9.80
2023-01-13T11:57:54.265Z,9.90
2023-01-13T12:00:32.090Z,9.80
2023-01-13T12:03:18.275Z,9.80
2023-01-13T12:05:59.838Z,9.80
2023-01-13T12:08:53.532Z,9.80
2023-01-13T12:11:32.097Z,9.70
2023-01-13T12:14:16.703Z,9.70
2023-01-13T12:16:51.100Z,9.70
2023-01-13T12:19:28.064Z,9.70
2023-01-13T12:22:12.907Z,9.70
2023-01-13T12:24:49.375Z,9.70
2023-01-13T12:27:25.126Z,9.70
2023-01-13T12:29:59.632Z,9.70
2023-01-13T12:32:34.807Z,9.70
2023-01-13T12:35:21.043Z,9.70
2023-01-13T12:37:57.863Z,9.60
2023-01-13T12:40:38.697Z,9.60
2023-01-13T12:43:37.701Z,9.60
2023-01-13T12:46:45.648Z,9.60
2023-01-13T12:49:22.670Z,9.70
2023-01-13T12:52:14.975Z,9.80
2023-01-13T12:55:03.682Z,9.80
2023-01-13T12:57:34.648Z,9.90
2023-01-13T13:00:25.643Z,10.00
2023-01-13T13:03:20.719Z,10.10
2023-01-13T13:06:05.406Z,10.20
2023-01-13T13:09:08.271Z,10.30
2023-01-13T13:12:02.362Z,10.30
2023-01-13T13:15:03.745Z,10.30
2023-01-13T13:18:01.465Z,10.30
2023-01-13T13:21:03.657Z,10.30
2023-01-13T13:24:03.452Z,10.30
2023-01-13T13:26:42.471Z,10.30
2023-01-13T13:29:41.310Z,10.20
2023-01-13T13:32:42.104Z,10.20
2023-01-13T13:35:28.576Z,10.10
2023-01-13T13:38:30.733Z,10.20
2023-01-13T13:41:16.991Z,10.10
2023-01-13T13:44:04.442Z,10.10
2023-01-13T13:46:49.249Z,10.00
2023-01-13T13:49:19.409Z,10.00
2023-01-13T13:51:59.420Z,9.90
2023-01-13T13:54:28.361Z,9.90
2023-01-13T13:56:58.079Z,9.90
2023-01-13T13:59:30.609Z,9.80
2023-01-13T14:02:03.550Z,9.80
2023-01-13T14:04:35.597Z,9.90
2023-01-13T14:07:18.382Z,9.90
2023-01-13T14:09:48.476Z,9.80
2023-01-13T14:12:21.914Z,9.80
2023-01-13T14:14:51.459Z,9.80
2023-01-13T14:17:25.611Z,9.90
2023-01-13T14:19:57.539Z,10.00
2023-01-13T14:22:27.429Z,9.90
2023-01-13T14:24:57.829Z,9.90
2023-01-13T14:27:28.406Z,9.80
2023-01-13T14:29:59.064Z,9.70
2023-01-13T14:32:34.357Z,9.60
2023-01-13T14:35:06.221Z,9.60
2023-01-13T14:37:39.642Z,9.60
2023-01-13T14:40:28.651Z,9.70
2023-01-13T14:43:00.256Z,9.60
2023-01-13T14:45:30.469Z,9.60
2023-01-13T14:48:00.879Z,9.60
2023-01-13T14:50:33.990Z,9.60
2023-01-13T14:53:05.014Z,9.70
2023-01-13T14:55:36.545Z,9.70
2023-01-13T14:58:29.388Z,9.70
2023-01-13T15:01:30.033Z,9.70
2023-01-13T15:04:25.124Z,9.60
2023-01-13T15:06:57.019Z,9.60
2023-01-13T15:09:28.863Z,9.60
2023-01-13T15:11:58.907Z,9.60
2023-01-13T15:14:31.311Z,9.50
2023-01-13T15:16:59.773Z,9.50
2023-01-13T15:19:28.034Z,9.40
2023-01-13T15:21:56.228Z,9.30
2023-01-13T15:24:26.042Z,9.30
2023-01-13T15:26:54.411Z,9.30
2023-01-13T15:29:24.318Z,9.20
2023-01-13T15:31:52.803Z,9.10
2023-01-13T15:34:21.274Z,9.10
2023-01-13T15:36:49.463Z,9.10
2023-01-13T15:39:17.676Z,9.00
2023-01-13T15:42:04.567Z,9.00
2023-01-13T15:45:01.662Z,9.10
2023-01-13T15:47:30.161Z,9.00
2023-01-13T15:49:58.419Z,9.00
2023-01-13T15:52:28.721Z,8.90
2023-01-13T15:54:57.215Z,8.90
2023-01-13T15:57:28.847Z,8.80
2023-01-13T15:59:59.570Z,8.80
2023-01-13T16:02:29.782Z,8.80
2023-01-13T16:04:58.272Z,8.70
2023-01-13T16:07:27.462Z,8.70
2023-01-13T16:09:55.928Z,8.70
2023-01-13T16:12:24.278Z,8.60
2023-01-13T16:14:56.720Z,8.50
2023-01-13T16:17:29.754Z,8.50
2023-01-13T16:19:58.385Z,8.40
2023-01-13T16:22:26.810Z,8.40
2023-01-13T16:24:55.055Z,8.30
2023-01-13T16:27:26.094Z,8.40
2023-01-13T16:29:55.680Z,8.40
2023-01-13T16:32:24.026Z,8.40
2023-01-13T16:34:52.354Z,8.40
2023-01-13T16:37:23.021Z,8.30
2023-01-13T16:39:52.153Z,8.30
2023-01-13T16:42:20.955Z,8.30
2023-01-13T16:44:49.799Z,8.30
2023-01-13T16:47:20.415Z,8.30
2023-01-13T16:49:48.879Z,8.30
2023-01-13T16:52:17.166Z,8.20
2023-01-13T16:54:45.476Z,8.20
2023-01-13T16:57:15.929Z,8.30
2023-01-13T16:59:44.119Z,8.20
2023-01-13T17:02:21.031Z,8.20
2023-01-13T17:05:27.437Z,8.20
2023-01-13T17:07:57.165Z,8.20
2023-01-13T17:10:26.204Z,8.20
2023-01-13T17:12:54.510Z,8.20
2023-01-13T17:15:23.311Z,8.20
2023-01-13T17:17:55.240Z,8.20
2023-01-13T17:20:26.285Z,8.20
2023-01-13T17:22:58.187Z,8.30
2023-01-13T17:25:27.525Z,8.30
2023-01-13T17:27:55.748Z,8.40
2023-01-13T17:30:24.021Z,8.40
2023-01-13T17:32:53.852Z,8.50
2023-01-13T17:35:24.856Z,8.50
2023-01-13T17:37:54.290Z,8.40
2023-01-13T17:40:22.919Z,8.40
2023-01-13T17:42:53.560Z,8.40
2023-01-13T17:45:21.978Z,8.30
2023-01-13T17:47:50.247Z,8.30
2023-01-13T17:50:20.011Z,8.30
2023-01-13T17:52:48.813Z,8.30
2023-01-13T17:55:17.314Z,8.20
2023-01-13T17:57:45.663Z,8.20
2023-01-13T18:00:21.952Z,8.20
2023-01-13T18:02:50.238Z,8.20
2023-01-13T18:05:20.036Z,8.20
2023-01-13T18:07:48.290Z,8.20
2023-01-13T18:10:16.843Z,8.20
2023-01-13T18:12:45.147Z,8.20
2023-01-13T18:15:13.426Z,8.20
2023-01-13T18:17:41.752Z,8.20
2023-01-13T18:20:32.855Z,8.20
2023-01-13T18:23:19.685Z,8.10
2023-01-13T18:26:05.651Z,8.10
2023-01-13T18:28:34.718Z,8.10
2023-01-13T18:31:03.154Z,8.20
2023-01-13T18:33:31.377Z,8.20
2023-01-13T18:40:38.190Z,8.10
2023-01-13T18:43:05.485Z,8.00
2023-01-13T18:45:34.294Z,8.00
2023-01-13T18:48:05.675Z,8.00
2023-01-13T18:50:35.766Z,8.00
2023-01-13T18:53:04.087Z,8.00
2023-01-13T18:55:32.586Z,8.00
2023-01-13T18:58:02.349Z,8.00
2023-01-13T19:05:15.458Z,8.00
2023-01-13T19:07:50.328Z,8.00
2023-01-13T19:10:19.413Z,8.00
2023-01-13T19:17:40.082Z,8.10
2023-01-13T19:20:09.535Z,8.10
2023-01-13T19:22:37.856Z,8.10
2023-01-13T19:25:06.999Z,8.10
2023-01-13T19:32:13.361Z,8.00
2023-01-13T19:34:44.694Z,8.00
2023-01-13T19:37:13.014Z,7.90
2023-01-13T19:39:41.491Z,7.90
2023-01-13T19:42:28.390Z,7.90
2023-01-13T19:45:14.298Z,7.90
2023-01-13T19:47:44.035Z,7.80
2023-01-13T19:50:14.844Z,7.80
2023-01-13T19:52:43.666Z,7.80
2023-01-13T19:55:12.514Z,7.80
2023-01-13T19:57:41.027Z,7.80
2023-01-13T20:00:11.525Z,7.70
2023-01-13T20:02:49.397Z,7.70
2023-01-13T20:05:22.663Z,7.70
2023-01-13T20:07:51.858Z,7.70
2023-01-13T20:10:21.851Z,7.70
2023-01-13T20:12:50.092Z,7.60
2023-01-13T20:15:18.577Z,7.60
2023-01-13T20:17:46.905Z,7.60
2023-01-13T20:20:15.997Z,7.60
2023-01-13T20:22:49.641Z,7.60
2023-01-13T20:25:19.906Z,7.60
2023-01-13T20:27:48.828Z,7.60
2023-01-13T20:30:17.488Z,7.60
2023-01-13T20:32:45.971Z,7.60
2023-01-13T20:35:14.218Z,7.50
2023-01-13T20:37:43.616Z,7.50
2023-01-13T20:40:17.117Z,7.50
2023-01-13T20:42:48.319Z,7.50
2023-01-13T20:45:20.798Z,7.50
2023-01-13T20:47:49.207Z,7.50
2023-01-13T20:50:17.890Z,7.50
2023-01-13T20:52:46.549Z,7.50
2023-01-13T20:55:16.486Z,7.40
2023-01-13T20:57:48.713Z,7.40
2023-01-13T21:00:18.112Z,7.40
2023-01-13T21:02:46.393Z,7.40
2023-01-13T21:05:14.612Z,7.30
2023-01-13T21:07:42.883Z,7.30
2023-01-13T21:10:12.432Z,7.20
2023-01-13T21:12:59.709Z,7.30
2023-01-13T21:15:28.243Z,7.30
2023-01-13T21:18:13.081Z,7.30
2023-01-13T21:20:41.633Z,7.30
2023-01-13T21:23:11.429Z,7.40
2023-01-13T21:25:42.503Z,7.30
2023-01-13T21:28:13.512Z,7.30
2023-01-13T21:30:42.053Z,7.30
2023-01-13T21:33:14.756Z,7.30
2023-01-13T21:35:43.013Z,7.30
2023-01-13T21:38:12.543Z,7.30
2023-01-13T21:40:41.156Z,7.30
2023-01-13T21:43:30.908Z,7.20
2023-01-13T21:46:31.599Z,7.20
2023-01-13T21:49:00.132Z,7.20
2023-01-13T21:51:29.153Z,7.20
2023-01-13T21:53:57.704Z,7.20
2023-01-13T21:56:26.560Z,7.30
2023-01-13T21:58:57.205Z,7.20
2023-01-13T22:01:25.848Z,7.20
2023-01-13T22:04:11.553Z,7.10
2023-01-13T22:06:40.276Z,7.10
2023-01-13T22:09:08.592Z,7.10
2023-01-13T22:11:36.814Z,7.00
2023-01-13T22:14:07.179Z,7.00
2023-01-13T22:16:37.868Z,7.00
2023-01-13T22:19:07.413Z,6.90
2023-01-13T22:21:36.480Z,6.90
2023-01-13T22:24:04.889Z,6.80
2023-01-13T22:26:33.302Z,6.80
2023-01-13T22:29:02.269Z,6.70
2023-01-13T22:31:31.936Z,6.60
2023-01-13T22:34:00.536Z,6.60
2023-01-13T22:36:28.926Z,6.50
2023-01-13T22:39:00.225Z,6.40
2023-01-13T22:41:28.681Z,6.40
2023-01-13T22:43:57.045Z,6.40
2023-01-13T22:46:25.273Z,6.40
2023-01-13T22:48:55.979Z,6.40
2023-01-13T22:51:26.058Z,6.40
2023-01-13T22:53:55.362Z,6.50
2023-01-13T22:56:25.323Z,6.50
2023-01-13T22:58:57.547Z,6.50
2023-01-13T23:01:26.953Z,6.40
2023-01-13T23:03:57.352Z,6.40
2023-01-13T23:06:27.708Z,6.40
2023-01-13T23:08:56.367Z,6.40
2023-01-13T23:11:27.204Z,6.40
2023-01-13T23:13:59.719Z,6.30
2023-01-13T23:16:29.732Z,6.40
2023-01-13T23:18:59.771Z,6.40
2023-01-13T23:21:30.330Z,6.40
2023-01-13T23:23:59.648Z,6.40
2023-01-13T23:26:28.109Z,6.40
2023-01-13T23:29:00.309Z,6.30
2023-01-13T23:31:28.548Z,6.20
2023-01-13T23:33:58.443Z,6.20
2023-01-13T23:36:28.392Z,6.10
2023-01-13T23:38:58.539Z,6.10
2023-01-13T23:41:28.401Z,6.10
2023-01-13T23:43:57.874Z,6.00
2023-01-13T23:46:27.012Z,6.00
2023-01-13T23:48:56.301Z,6.10
2023-01-13T23:51:27.659Z,6.00
2023-01-13T23:53:56.094Z,6.00
2023-01-13T23:56:27.681Z,6.00
2023-01-13T23:58:56.112Z,6.00
